Saturday, December 16, 2017, 5:45 AM EST
Back to Local

KACK, Nantucket Memorial Airport

Location: Nantucket, MA, United States Lat: 41.25
Local Time: 5:45 AM EST (10:45 GMT) Lon: -70.067
Time Zone: US/Eastern Elev: 49 ft

Show me the last for .
Show Decoded

2017-12-16 04:53 METAR KACK 160953Z AUTO 28012KT 10SM FEW023 M04/M06 A2984 RMK AO2 SLP105
                 T10391056 TSNO =
2017-12-16 04:32 METAR KACK 160932Z AUTO 29010G23KT 10SM SCT022 M03/M06 A2983 RMK AO2 T10281061
                 TSNO =
2017-12-16 04:22 METAR KACK 160922Z AUTO 29011KT 10SM BKN022 M03/M05 A2982 RMK AO2 T10331050 TSNO
                 =
2017-12-16 03:53 METAR KACK 160853Z AUTO 28010KT 10SM FEW080 M03/M05 A2981 RMK AO2 SLP095 60000
                 T10331050 53011 TSNO =
2017-12-16 03:41 METAR KACK 160841Z AUTO 29013KT 10SM SCT026 BKN080 M03/M05 A2981 RMK AO2
                 T10281050 TSNO =
2017-12-16 02:53 METAR KACK 160753Z AUTO 30014KT 10SM OVC022 M02/M03 A2981 RMK AO2 UPB19E21SNE19
                 SLP093 P0000 T10221033 TSNO =
2017-12-16 02:16 METAR KACK 160716Z AUTO 29017G24KT 8SM -SN SCT008 BKN015 OVC033 M02/M03 A2980
                 RMK AO2 P0000 T10221028 TSNO =
2017-12-16 02:02 METAR KACK 160702Z AUTO 29014KT 4SM -SN BR BKN008 BKN015 OVC020 M01/M01 A2979
                 RMK AO2 P0000 T10111011 TSNO =
2017-12-16 01:53 METAR KACK 160653Z AUTO 30013KT 2 1/2SM -SN BR OVC008 M01/M01 A2978 RMK AO2
                 SLP085 P0000 T10111011 TSNO =
2017-12-16 01:48 METAR KACK 160648Z AUTO 30010KT 2 1/2SM -SN BR OVC008 M01/M01 A2978 RMK AO2
                 P0000 TSNO =
2017-12-16 01:01 METAR KACK 160601Z AUTO 33017KT 1 1/4SM -SN BR OVC008 M01/M01 A2976 RMK AO2
                 P0000 T10111011 TSNO =
2017-12-16 00:53 METAR KACK 160553Z AUTO 33014KT 2SM -SN BR OVC007 M01/M01 A2976 RMK AO2 SLP078
                 P0001 60005 T10061006 10006 21011 55000 TSNO =
2017-12-16 00:38 METAR KACK 160538Z AUTO 34013KT 2SM -SN BR OVC006 00/00 A2975 RMK AO2 P0001
                 T00000000 TSNO =
2017-12-16 00:28 METAR KACK 160528Z AUTO 34010KT 1 3/4SM -SN BR OVC005 00/00 A2976 RMK AO2 P0001
                 T00000000 TSNO =
2017-12-16 00:17 METAR KACK 160517Z AUTO 34011KT 2SM -SN BR OVC007 00/00 A2975 RMK AO2 P0001
                 T00000000 TSNO =
2017-12-16 00:07 METAR KACK 160507Z AUTO 34010KT 3SM -SN BR FEW005 OVC009 01/01 A2976 RMK AO2
                 P0001 T00060006 TSNO =
2017-12-15 23:58 METAR KACK 160458Z AUTO 34007KT 2 1/2SM -SN BR FEW006 OVC013 01/01 A2976 RMK AO2
                 P0000 T00060006 TSNO =
2017-12-15 23:53 METAR KACK 160453Z AUTO 34006KT 2 1/2SM -SN BR OVC017 01/01 A2976 RMK AO2 SLP077
                 P0001 T00060006 400061083 TSNO =
2017-12-15 23:50 METAR KACK 160450Z AUTO 34006KT 2 1/2SM -SN BR FEW005 FEW012 OVC017 01/01 A2976
                 RMK AO2 P0001 TSNO =
2017-12-15 23:30 METAR KACK 160430Z AUTO 34006KT 4SM -SN BR SCT005 OVC017 00/00 A2977 RMK AO2
                 P0000 T00000000 TSNO =
2017-12-15 23:21 METAR KACK 160421Z AUTO 35006KT 4SM -SN BR FEW005 OVC013 00/00 A2977 RMK AO2
                 P0000 T00000000 TSNO =
2017-12-15 23:03 METAR KACK 160403Z AUTO 01005KT 3SM -SN BR OVC006 00/00 A2977 RMK AO2 P0000
                 T00000000 TSNO =
2017-12-15 22:53 METAR KACK 160353Z AUTO 02006KT 4SM -SN BR SCT006 OVC014 00/00 A2977 RMK AO2
                 SLP082 P0000 T00000000 TSNO =
2017-12-15 22:38 METAR KACK 160338Z AUTO 36006KT 5SM -SN BR FEW006 FEW011 OVC018 00/00 A2978 RMK
                 AO2 P0000 T00000000 TSNO =
2017-12-15 22:25 METAR KACK 160325Z AUTO 36005KT 3SM -SN BR FEW006 OVC012 00/00 A2979 RMK AO2
                 P0000 T00000000 TSNO =
2017-12-15 22:10 METAR KACK 160310Z AUTO 01005KT 2SM -SN BR OVC010 00/00 A2979 RMK AO2 P0000
                 T00000000 TSNO =
2017-12-15 22:00 METAR KACK 160300Z AUTO 01005KT 1 3/4SM -SN BR OVC006 00/00 A2979 RMK AO2 P0000
                 T00000000 TSNO =
2017-12-15 21:53 METAR KACK 160253Z AUTO 02005KT 2SM -SN BR OVC007 00/00 A2980 RMK AO2 SLP090
                 P0001 60003 T00000000 56017 TSNO =
2017-12-15 21:50 METAR KACK 160250Z AUTO 01006KT 2SM -SN BR OVC007 00/00 A2980 RMK AO2 P0001 TSNO
                 =
2017-12-15 21:40 METAR KACK 160240Z AUTO 36005KT 3SM -SN BR OVC009 00/00 A2981 RMK AO2 P0000
                 T00000000 TSNO =
2017-12-15 21:32 METAR KACK 160232Z AUTO 01004KT 2 1/2SM -SN BR OVC009 00/00 A2981 RMK AO2 P0000
                 T00000000 TSNO =
2017-12-15 21:20 METAR KACK 160220Z AUTO 02005KT 1 1/2SM -SN BR OVC010 M01/M01 A2981 RMK AO2
                 P0000 T10061006 TSNO =
2017-12-15 21:09 METAR KACK 160209Z AUTO 03005KT 2SM -SN BR OVC011 M01/M01 A2982 RMK AO2 P0000
                 T10061006 TSNO =
2017-12-15 20:53 METAR KACK 160153Z 03004KT 4SM -SN BR OVC011 M01/M01 A2983 RMK AO2 SLP100 P0000
                 T10061006 =
2017-12-15 19:53 METAR KACK 160053Z 02005KT 2 1/2SM -SN BR OVC011 M01/M01 A2985 RMK AO2 SLP107
                 P0002 T10061006 =
2017-12-15 19:42 METAR KACK 160042Z 02005KT 1 3/4SM -SN BR OVC011 M01/M01 A2985 RMK AO2 P0001
                 T10061006 =
2017-12-15 18:53 METAR KACK 152353Z 04004KT 2SM -SN BR OVC010 M01/M01 A2987 RMK AO2 SLP116 P0003
                 60003 T10111011 11006 21017 56020 =
2017-12-15 18:19 METAR KACK 152319Z 04004KT 1SM R24/P6000FT -SN BR VV008 M01/M01 A2988 RMK AO2
                 P0002 T10111011 =
2017-12-15 17:53 METAR KACK 152253Z 09004KT 1 1/4SM -SN BR BKN017 OVC024 M01/M03 A2989 RMK AO2
                 SNB29 SLP123 P0000 T10111028 =
2017-12-15 17:49 METAR KACK 152249Z 09004KT 1 3/4SM -SN BR OVC022 M01/M03 A2989 RMK AO2 SNB29
                 P0000 =
2017-12-15 16:53 METAR KACK 152153Z 03006KT 10SM FEW033 OVC050 M01/M04 A2989 RMK AO2 PRESFR
                 SLP123 T10111039 =
2017-12-15 16:26 METAR KACK 152126Z 04006KT 10SM SCT028 BKN032 BKN055 M01/M04 A2992 RMK AO2
                 T10111044 =
2017-12-15 16:11 METAR KACK 152111Z 06003KT 10SM BKN028 OVC100 M01/M04 A2994 RMK AO2 T10061044 =
2017-12-15 15:53 METAR KACK 152053Z 07005KT 10SM FEW024 BKN030 OVC100 M01/M04 A2993 RMK AO2
                 PRESFR SLP136 T10061044 58030 =
2017-12-15 14:53 METAR KACK 151953Z 00000KT 10SM SCT032 M01/M04 A2998 RMK AO2 SLP152 T10061044 =
2017-12-15 13:53 METAR KACK 151853Z 00000KT 10SM CLR M01/M05 A2999 RMK AO2 SLP157 T10111050 =
2017-12-15 12:53 METAR KACK 151753Z 26004KT 10SM CLR M01/M06 A3002 RMK AO2 SLP165 T10111061 11011
                 21078 58037 =
2017-12-15 11:53 METAR KACK 151653Z 24005KT 10SM CLR M02/M07 A3006 RMK AO2 SLP179 T10221072 =
2017-12-15 10:53 METAR KACK 151553Z 28008KT 10SM CLR M02/M08 A3010 RMK AO2 SLP193 T10221083 =
2017-12-15 09:53 METAR KACK 151453Z 33004KT 10SM CLR M03/M10 A3013 RMK AO2 SLP202 T10331100 53014
                 =
2017-12-15 08:53 METAR KACK 151353Z 27003KT 10SM CLR M04/M09 A3011 RMK AO2 SLP197 T10441094 =
2017-12-15 07:53 METAR KACK 151253Z 00000KT 10SM CLR M07/M12 A3009 RMK AO2 SLP190 T10671117 =
2017-12-15 06:53 METAR KACK 151153Z 30004KT 10SM CLR M06/M12 A3009 RMK AO2 SLP189 T10611117 11050
                 21083 51011 =
2017-12-15 05:53 METAR KACK 151053Z 31007KT 10SM CLR M06/M12 A3008 RMK AO2 SLP187 T10561117 =

Support USWX by starting your Amazon purchase here.